createdAt,value
2019-01-20T00:00:10.795Z,77.69
2019-01-20T00:02:42.269Z,77.68
2019-01-20T00:05:14.642Z,77.78
2019-01-20T00:07:45.946Z,77.85
2019-01-20T00:10:17.320Z,77.88
2019-01-20T00:12:48.669Z,77.97
2019-01-20T00:15:20.286Z,78.06
2019-01-20T00:17:51.589Z,78.13
2019-01-20T00:20:22.939Z,78.15
2019-01-20T00:22:54.318Z,78.16
2019-01-20T00:25:25.655Z,77.89
2019-01-20T00:27:56.982Z,77.85
2019-01-20T00:30:28.274Z,77.90
2019-01-20T00:32:59.610Z,78.14
2019-01-20T00:35:30.923Z,78.06
2019-01-20T00:38:02.230Z,78.09
2019-01-20T00:40:33.582Z,78.27
2019-01-20T00:43:05.079Z,78.25
2019-01-20T00:45:36.387Z,78.45
2019-01-20T00:48:07.702Z,78.41
2019-01-20T00:50:39.038Z,77.86
2019-01-20T00:53:10.321Z,77.66
2019-01-20T00:55:41.640Z,77.91
2019-01-20T00:58:12.927Z,77.65
2019-01-20T01:00:44.248Z,77.65
2019-01-20T01:03:15.563Z,77.71
2019-01-20T01:05:46.864Z,77.79
2019-01-20T01:08:18.220Z,77.82
2019-01-20T01:10:49.592Z,77.85
2019-01-20T01:13:22.336Z,77.75
2019-01-20T01:15:53.633Z,77.74
2019-01-20T01:18:24.953Z,77.61
2019-01-20T01:20:56.230Z,77.66
2019-01-20T01:23:27.500Z,77.42
2019-01-20T01:25:58.803Z,77.12
2019-01-20T01:28:30.081Z,77.41
2019-01-20T01:31:01.452Z,77.59
2019-01-20T01:33:32.737Z,77.37
2019-01-20T01:36:04.109Z,76.53
2019-01-20T01:38:35.404Z,76.85
2019-01-20T01:41:06.744Z,76.86
2019-01-20T01:43:38.135Z,77.02
2019-01-20T01:46:09.402Z,76.94
2019-01-20T01:48:40.771Z,76.88
2019-01-20T01:51:12.113Z,76.89
2019-01-20T01:53:43.401Z,77.17
2019-01-20T01:56:14.781Z,77.10
2019-01-20T01:58:46.089Z,77.34
2019-01-20T02:01:17.385Z,77.62
2019-01-20T02:03:48.681Z,77.65
2019-01-20T02:06:20.024Z,77.89
2019-01-20T02:08:51.349Z,77.73
2019-01-20T02:11:22.657Z,77.87
2019-01-20T02:13:53.982Z,77.82
2019-01-20T02:16:25.272Z,77.62
2019-01-20T02:18:56.573Z,77.73
2019-01-20T02:21:27.921Z,77.85
2019-01-20T02:23:59.207Z,78.18
2019-01-20T02:26:30.499Z,78.07
2019-01-20T02:29:01.895Z,77.96
2019-01-20T02:31:33.172Z,78.03
2019-01-20T02:34:04.530Z,77.75
2019-01-20T02:36:35.826Z,77.85
2019-01-20T02:39:09.175Z,77.81
2019-01-20T02:41:40.482Z,77.62
2019-01-20T02:44:11.790Z,77.51
2019-01-20T02:46:43.037Z,77.37
2019-01-20T02:49:14.344Z,77.40
2019-01-20T02:51:45.658Z,77.30
2019-01-20T02:54:16.915Z,77.48
2019-01-20T02:56:48.226Z,77.60
2019-01-20T02:59:19.531Z,77.16
2019-01-20T03:01:50.892Z,76.93
2019-01-20T03:04:22.233Z,77.19
2019-01-20T03:06:53.538Z,77.40
2019-01-20T03:09:24.900Z,77.77
2019-01-20T03:12:03.488Z,77.66
2019-01-20T03:14:29.192Z,77.60
2019-01-20T03:17:00.499Z,77.63
2019-01-20T03:19:31.874Z,77.80
2019-01-20T03:22:03.203Z,77.68
2019-01-20T03:24:34.489Z,77.35
2019-01-20T03:27:06.044Z,77.40
2019-01-20T03:29:37.321Z,77.65
2019-01-20T03:32:08.597Z,77.98
2019-01-20T03:34:39.902Z,77.61
2019-01-20T03:37:11.250Z,77.67
2019-01-20T03:39:42.496Z,77.58
2019-01-20T03:42:13.767Z,77.57
2019-01-20T03:44:45.120Z,77.77
2019-01-20T03:47:16.382Z,78.05
2019-01-20T03:49:47.690Z,78.33
2019-01-20T03:52:18.990Z,77.94
2019-01-20T03:54:50.272Z,78.65
2019-01-20T03:57:21.567Z,78.00
2019-01-20T03:59:52.853Z,78.00
2019-01-20T04:02:24.604Z,77.38
2019-01-20T04:04:55.927Z,77.23
2019-01-20T04:07:27.207Z,77.43
2019-01-20T04:09:58.489Z,78.02
2019-01-20T04:12:29.796Z,78.40
2019-01-20T04:15:01.075Z,78.48
2019-01-20T04:17:32.357Z,77.98
2019-01-20T04:20:03.714Z,78.18
2019-01-20T04:22:34.988Z,78.28
2019-01-20T04:25:08.983Z,78.63
2019-01-20T04:27:40.257Z,78.64
2019-01-20T04:30:14.519Z,78.60
2019-01-20T04:32:45.810Z,77.47
2019-01-20T04:35:17.101Z,77.20
2019-01-20T04:37:48.420Z,78.11
2019-01-20T04:40:22.470Z,77.78
2019-01-20T04:42:53.757Z,77.58
2019-01-20T04:45:25.155Z,77.56
2019-01-20T04:47:56.412Z,77.57
2019-01-20T04:50:27.689Z,77.39
2019-01-20T04:52:58.988Z,77.88
2019-01-20T04:55:30.274Z,78.13
2019-01-20T04:58:01.674Z,78.01
2019-01-20T05:00:32.977Z,78.09
2019-01-20T05:03:04.435Z,77.97
2019-01-20T05:05:35.736Z,77.56
2019-01-20T05:08:07.024Z,77.84
2019-01-20T05:10:38.324Z,78.05
2019-01-20T05:13:09.607Z,77.55
2019-01-20T05:15:40.902Z,77.60
2019-01-20T05:18:12.198Z,78.06
2019-01-20T05:20:43.483Z,78.04
2019-01-20T05:23:14.832Z,78.16
2019-01-20T05:25:46.111Z,78.99
2019-01-20T05:28:17.405Z,78.74
2019-01-20T05:30:48.697Z,78.85
2019-01-20T05:33:20.026Z,78.94
2019-01-20T05:35:51.286Z,79.58
2019-01-20T05:38:22.592Z,79.09
2019-01-20T05:40:53.855Z,79.17
2019-01-20T05:43:25.162Z,79.36
2019-01-20T05:45:56.502Z,79.98
2019-01-20T05:48:27.804Z,79.55
2019-01-20T05:50:59.103Z,79.00
2019-01-20T05:53:30.414Z,79.17
2019-01-20T05:56:02.019Z,78.62
2019-01-20T05:58:33.442Z,78.82
2019-01-20T06:01:04.770Z,78.92
2019-01-20T06:03:36.014Z,78.80
2019-01-20T06:06:07.348Z,78.73
2019-01-20T06:08:38.684Z,78.62
2019-01-20T06:11:09.938Z,78.19
2019-01-20T06:13:41.305Z,78.14
2019-01-20T06:16:12.554Z,78.62
2019-01-20T06:18:43.844Z,78.69
2019-01-20T06:21:15.178Z,78.48
2019-01-20T06:23:46.481Z,78.36
2019-01-20T06:26:17.795Z,78.27
2019-01-20T06:28:49.092Z,78.12
2019-01-20T06:31:20.371Z,78.36
2019-01-20T06:33:51.716Z,78.40
2019-01-20T06:36:23.035Z,78.40
2019-01-20T06:38:54.342Z,78.30
2019-01-20T06:41:25.669Z,78.53
2019-01-20T06:43:56.962Z,78.64
2019-01-20T06:46:28.274Z,78.33
2019-01-20T06:49:02.438Z,78.46
2019-01-20T06:51:33.695Z,78.70
2019-01-20T06:54:05.017Z,79.17
2019-01-20T06:56:36.297Z,79.31
2019-01-20T06:59:07.636Z,79.79
2019-01-20T07:01:38.902Z,80.29
2019-01-20T07:04:10.215Z,80.60
2019-01-20T07:06:41.526Z,80.76
2019-01-20T07:09:12.828Z,80.71
2019-01-20T07:11:44.116Z,80.35
2019-01-20T07:14:15.406Z,79.70
2019-01-20T07:16:46.684Z,79.71
2019-01-20T07:19:17.958Z,79.35
2019-01-20T07:21:49.248Z,78.80
2019-01-20T07:24:20.576Z,78.62
2019-01-20T07:26:51.875Z,78.72
2019-01-20T07:29:24.696Z,78.04
2019-01-20T07:31:56.114Z,76.79
2019-01-20T07:34:27.511Z,76.44
2019-01-20T07:36:58.847Z,76.51
2019-01-20T07:39:30.181Z,75.52
2019-01-20T07:42:01.475Z,72.29
2019-01-20T07:44:32.776Z,67.76
2019-01-20T07:47:04.092Z,64.60
2019-01-20T07:49:35.413Z,62.47
2019-01-20T07:52:06.687Z,60.53
2019-01-20T07:54:37.984Z,57.66
2019-01-20T07:57:09.277Z,54.89
2019-01-20T07:59:40.541Z,52.43
2019-01-20T08:02:11.833Z,50.05
2019-01-20T08:04:43.098Z,47.03
2019-01-20T08:07:14.367Z,44.37
2019-01-20T08:09:45.658Z,41.75
2019-01-20T08:12:23.368Z,39.47
2019-01-20T08:14:49.923Z,37.37
2019-01-20T08:17:21.177Z,35.97
2019-01-20T08:19:52.484Z,34.11
2019-01-20T08:22:23.760Z,32.75
2019-01-20T08:24:55.033Z,31.37
2019-01-20T08:27:26.321Z,30.36
2019-01-20T08:29:57.563Z,29.81
2019-01-20T08:32:28.899Z,28.74
2019-01-20T08:35:00.264Z,28.00
2019-01-20T08:37:31.524Z,26.43
2019-01-20T08:40:02.831Z,25.72
2019-01-20T08:42:34.123Z,25.48
2019-01-20T08:45:08.383Z,24.20
2019-01-20T08:47:46.345Z,24.20
2019-01-20T08:50:18.448Z,23.58
2019-01-20T08:52:49.759Z,22.60
2019-01-20T08:55:21.063Z,22.48
2019-01-20T08:57:52.355Z,22.09
2019-01-20T09:00:23.742Z,21.33
2019-01-20T09:02:55.049Z,21.10
2019-01-20T09:05:26.299Z,20.90
2019-01-20T09:07:57.560Z,20.06
2019-01-20T09:10:29.487Z,19.94
2019-01-20T09:13:02.895Z,19.68
2019-01-20T09:15:34.146Z,19.54
2019-01-20T09:18:05.799Z,19.87
2019-01-20T09:20:37.168Z,19.85
2019-01-20T09:23:08.416Z,18.99
2019-01-20T09:25:39.705Z,19.64
2019-01-20T09:28:10.996Z,19.01
2019-01-20T09:30:42.290Z,18.44
2019-01-20T09:33:13.617Z,18.39
2019-01-20T09:35:44.900Z,17.74
2019-01-20T09:38:16.211Z,17.84
2019-01-20T09:40:47.487Z,17.07
2019-01-20T09:43:18.741Z,17.37
2019-01-20T09:45:51.140Z,17.57
2019-01-20T09:48:22.419Z,18.44
2019-01-20T09:50:53.722Z,18.03
2019-01-20T09:53:25.125Z,18.78
2019-01-20T09:55:56.403Z,19.62
2019-01-20T09:58:27.641Z,18.96
2019-01-20T10:00:58.941Z,18.31
2019-01-20T10:03:30.306Z,17.74
2019-01-20T10:06:01.605Z,18.96
2019-01-20T10:08:32.957Z,19.09
2019-01-20T10:11:04.353Z,19.05
2019-01-20T10:13:35.661Z,19.76
2019-01-20T10:16:06.928Z,18.30
2019-01-20T10:18:38.223Z,18.22
2019-01-20T10:21:09.500Z,19.08
2019-01-20T10:23:40.775Z,18.66
2019-01-20T10:26:12.083Z,18.44
2019-01-20T10:28:43.362Z,18.47
2019-01-20T10:31:14.648Z,18.52
2019-01-20T10:33:45.902Z,18.62
2019-01-20T10:36:17.227Z,18.53
2019-01-20T10:38:48.526Z,19.56
2019-01-20T10:41:19.839Z,19.99
2019-01-20T10:43:51.129Z,19.14
2019-01-20T10:46:22.447Z,20.63
2019-01-20T10:48:53.757Z,19.52
2019-01-20T10:51:25.046Z,20.81
2019-01-20T10:53:56.376Z,21.11
2019-01-20T10:56:27.692Z,21.17
2019-01-20T10:59:01.081Z,21.31
2019-01-20T11:01:32.429Z,22.34
2019-01-20T11:04:03.869Z,21.31
2019-01-20T11:06:35.314Z,22.63
2019-01-20T11:09:08.153Z,22.92
2019-01-20T11:11:39.441Z,22.87
2019-01-20T11:14:10.739Z,23.03
2019-01-20T11:16:42.033Z,22.19
2019-01-20T11:19:13.322Z,23.02
2019-01-20T11:21:44.646Z,20.92
2019-01-20T11:24:15.957Z,21.71
2019-01-20T11:26:47.288Z,22.79
2019-01-20T11:29:18.600Z,21.72
2019-01-20T11:31:49.894Z,19.64
2019-01-20T11:34:21.140Z,19.80
2019-01-20T11:36:52.495Z,20.33
2019-01-20T11:39:23.766Z,19.54
2019-01-20T11:41:55.084Z,21.11
2019-01-20T11:44:26.433Z,21.10
2019-01-20T11:46:57.741Z,22.06
2019-01-20T11:49:29.039Z,22.71
2019-01-20T11:52:00.360Z,22.98
2019-01-20T11:54:31.671Z,22.67
2019-01-20T11:57:02.952Z,22.22
2019-01-20T11:59:34.245Z,21.04
2019-01-20T12:02:06.158Z,19.75
2019-01-20T12:04:37.653Z,19.17
2019-01-20T12:07:08.966Z,18.50
2019-01-20T12:09:40.278Z,18.52
2019-01-20T12:12:11.568Z,18.37
2019-01-20T12:14:42.918Z,19.77
2019-01-20T12:17:14.307Z,18.83
2019-01-20T12:19:45.668Z,18.66
2019-01-20T12:22:16.970Z,18.14
2019-01-20T12:24:48.354Z,18.39
2019-01-20T12:27:19.731Z,18.44
2019-01-20T12:29:51.973Z,17.72
2019-01-20T12:32:23.695Z,17.81
2019-01-20T12:34:56.567Z,18.17
2019-01-20T12:37:27.954Z,18.33
2019-01-20T12:39:59.323Z,18.18
2019-01-20T12:42:32.711Z,17.80
2019-01-20T12:45:04.369Z,19.41
2019-01-20T12:47:35.696Z,19.07
2019-01-20T12:50:09.649Z,18.71
2019-01-20T12:52:40.946Z,18.69
2019-01-20T12:55:13.277Z,19.17
2019-01-20T12:57:44.732Z,18.34
2019-01-20T13:00:18.273Z,19.11
2019-01-20T13:02:49.640Z,18.11
2019-01-20T13:05:21.034Z,18.54
2019-01-20T13:07:52.325Z,18.03
2019-01-20T13:10:23.665Z,17.48
2019-01-20T13:12:54.875Z,17.94
2019-01-20T13:15:26.152Z,17.78
2019-01-20T13:17:57.383Z,18.96
2019-01-20T13:20:28.763Z,18.26
2019-01-20T13:23:01.019Z,17.79
2019-01-20T13:25:32.893Z,17.84
2019-01-20T13:28:04.325Z,17.08
2019-01-20T13:30:35.677Z,17.99
2019-01-20T13:33:07.042Z,17.29
2019-01-20T13:35:38.344Z,18.16
2019-01-20T13:38:16.651Z,18.80
2019-01-20T13:41:29.219Z,18.07
2019-01-20T13:44:00.770Z,17.61
2019-01-20T13:46:32.058Z,17.33
2019-01-20T13:49:03.330Z,18.65
2019-01-20T13:51:34.679Z,17.55
2019-01-20T13:54:06.114Z,18.53
2019-01-20T13:56:37.410Z,18.81
2019-01-20T13:59:08.654Z,19.78
2019-01-20T14:01:39.901Z,18.95
2019-01-20T14:04:11.208Z,20.11
2019-01-20T14:06:42.502Z,19.07
2019-01-20T14:09:13.788Z,19.86
2019-01-20T14:11:45.080Z,20.00
2019-01-20T14:14:16.358Z,20.62
2019-01-20T14:16:47.630Z,20.52
2019-01-20T14:19:21.813Z,22.48
2019-01-20T14:21:51.965Z,22.42
2019-01-20T14:24:23.314Z,24.06
2019-01-20T14:26:54.645Z,25.16
2019-01-20T14:29:25.976Z,25.20
2019-01-20T14:31:57.315Z,26.21
2019-01-20T14:34:28.626Z,27.06
2019-01-20T14:36:59.908Z,26.15
2019-01-20T14:39:31.198Z,26.21
2019-01-20T14:42:02.513Z,27.10
2019-01-20T14:44:33.798Z,28.39
2019-01-20T14:47:05.081Z,28.24
2019-01-20T14:49:36.394Z,28.91
2019-01-20T14:52:07.695Z,28.01
2019-01-20T14:54:39.001Z,28.39
2019-01-20T14:57:10.273Z,28.01
2019-01-20T14:59:41.608Z,29.07
2019-01-20T15:02:12.888Z,29.06
2019-01-20T15:04:44.189Z,29.94
2019-01-20T15:07:15.479Z,30.60
2019-01-20T15:09:46.771Z,30.30
2019-01-20T15:12:18.068Z,30.24
2019-01-20T15:14:49.490Z,30.10
2019-01-20T15:17:20.783Z,31.09
2019-01-20T15:19:52.073Z,31.48
2019-01-20T15:22:23.370Z,31.76
2019-01-20T15:24:54.673Z,31.99
2019-01-20T15:27:25.974Z,32.12
2019-01-20T15:29:57.306Z,32.92
2019-01-20T15:32:28.597Z,33.75
2019-01-20T15:34:59.884Z,33.87
2019-01-20T15:37:31.206Z,34.51
2019-01-20T15:40:02.494Z,35.32
2019-01-20T15:42:33.779Z,36.20
2019-01-20T15:45:05.698Z,36.49
2019-01-20T15:47:36.973Z,37.14
2019-01-20T15:50:12.685Z,37.95
2019-01-20T15:52:44.005Z,39.48
2019-01-20T15:55:15.489Z,39.81
2019-01-20T15:57:46.934Z,41.08
2019-01-20T16:00:21.489Z,41.89
2019-01-20T16:02:52.781Z,42.50
2019-01-20T16:05:25.502Z,43.69
2019-01-20T16:07:56.808Z,44.98
2019-01-20T16:10:28.129Z,45.08
2019-01-20T16:12:59.398Z,45.66
2019-01-20T16:15:39.939Z,46.42
2019-01-20T16:18:14.378Z,47.28
2019-01-20T16:20:44.180Z,48.22
2019-01-20T16:23:15.481Z,48.73
2019-01-20T16:25:46.812Z,49.17
2019-01-20T16:28:18.161Z,50.23
2019-01-20T16:30:49.424Z,50.50
2019-01-20T16:33:24.919Z,51.16
2019-01-20T16:35:53.763Z,51.78
2019-01-20T16:38:25.055Z,52.06
2019-01-20T16:40:56.360Z,52.61
2019-01-20T16:43:27.692Z,53.26
2019-01-20T16:45:58.984Z,53.60
2019-01-20T16:48:30.277Z,54.53
2019-01-20T16:51:01.595Z,55.15
2019-01-20T16:53:32.832Z,55.73
2019-01-20T16:56:04.136Z,56.54
2019-01-20T16:58:35.484Z,56.56
2019-01-20T17:01:06.823Z,56.84
2019-01-20T17:03:38.161Z,57.18
2019-01-20T17:06:09.431Z,57.55
2019-01-20T17:08:40.727Z,58.15
2019-01-20T17:11:12.078Z,58.89
2019-01-20T17:13:43.643Z,58.53
2019-01-20T17:16:15.001Z,58.72
2019-01-20T17:18:46.413Z,59.09
2019-01-20T17:21:17.716Z,58.47
2019-01-20T17:23:49.052Z,57.85
2019-01-20T17:26:20.389Z,57.99
2019-01-20T17:28:51.702Z,58.02
2019-01-20T17:31:23.059Z,57.63
2019-01-20T17:33:54.331Z,57.42
2019-01-20T17:36:25.679Z,57.74
2019-01-20T17:38:57.041Z,57.98
2019-01-20T17:41:28.328Z,58.01
2019-01-20T17:43:59.703Z,58.20
2019-01-20T17:46:31.034Z,58.55
2019-01-20T17:49:02.395Z,58.87
2019-01-20T17:51:41.799Z,59.64
2019-01-20T17:54:13.070Z,59.49
2019-01-20T17:56:44.411Z,59.16
2019-01-20T17:59:15.726Z,58.93
2019-01-20T18:01:47.025Z,59.51
2019-01-20T18:04:18.350Z,59.71
2019-01-20T18:06:49.720Z,60.17
2019-01-20T18:09:21.034Z,59.64
2019-01-20T18:11:52.331Z,59.51
2019-01-20T18:14:23.654Z,60.27
2019-01-20T18:16:54.954Z,59.86
2019-01-20T18:19:26.308Z,60.51
2019-01-20T18:21:57.595Z,61.04
2019-01-20T18:24:28.918Z,61.06
2019-01-20T18:27:00.278Z,60.99
2019-01-20T18:29:31.562Z,61.38
2019-01-20T18:32:02.898Z,60.94
2019-01-20T18:34:34.187Z,60.83
2019-01-20T18:37:05.645Z,60.50
2019-01-20T18:39:36.882Z,60.04
2019-01-20T18:42:08.276Z,60.39
2019-01-20T18:44:39.575Z,60.80
2019-01-20T18:47:10.835Z,60.10
2019-01-20T18:49:42.224Z,60.55
2019-01-20T18:52:13.547Z,60.21
2019-01-20T18:54:44.875Z,59.52
2019-01-20T18:57:16.215Z,60.09
2019-01-20T18:59:47.510Z,60.59
2019-01-20T19:02:18.821Z,60.98
2019-01-20T19:04:50.187Z,60.24
2019-01-20T19:07:21.475Z,60.30
2019-01-20T19:09:52.844Z,60.64
2019-01-20T19:12:24.163Z,60.63
2019-01-20T19:14:55.459Z,60.51
2019-01-20T19:17:26.811Z,61.05
2019-01-20T19:19:58.115Z,61.45
2019-01-20T19:22:29.461Z,61.71
2019-01-20T19:25:00.787Z,62.22
2019-01-20T19:27:35.412Z,62.25
2019-01-20T19:30:14.458Z,62.77
2019-01-20T19:32:45.762Z,62.99
2019-01-20T19:35:17.166Z,63.69
2019-01-20T19:37:48.506Z,63.37
2019-01-20T19:40:19.854Z,63.33
2019-01-20T19:42:51.182Z,63.09
2019-01-20T19:45:22.707Z,63.55
2019-01-20T19:47:56.953Z,63.98
2019-01-20T19:50:28.254Z,63.99
2019-01-20T19:52:59.637Z,64.01
2019-01-20T19:55:35.108Z,64.28
2019-01-20T19:58:06.728Z,64.15
2019-01-20T20:00:38.224Z,63.93
2019-01-20T20:03:10.673Z,64.04
2019-01-20T20:05:42.007Z,64.17
2019-01-20T20:08:13.392Z,64.35
2019-01-20T20:10:44.804Z,64.53
2019-01-20T20:13:16.113Z,64.96
2019-01-20T20:15:50.242Z,64.95
2019-01-20T20:18:24.557Z,65.12
2019-01-20T20:20:55.905Z,65.20
2019-01-20T20:23:27.314Z,65.21
2019-01-20T20:25:58.775Z,65.40
2019-01-20T20:28:30.155Z,65.23
2019-01-20T20:31:01.556Z,65.07
2019-01-20T20:33:32.946Z,65.17
2019-01-20T20:36:04.390Z,65.47
2019-01-20T20:38:35.687Z,65.88
2019-01-20T20:41:07.059Z,66.28
2019-01-20T20:43:38.480Z,66.39
2019-01-20T20:46:09.864Z,66.67
2019-01-20T20:48:41.209Z,66.31
2019-01-20T20:51:12.602Z,66.55
2019-01-20T20:53:43.993Z,66.41
2019-01-20T20:56:15.401Z,66.26
2019-01-20T20:58:46.737Z,66.70
2019-01-20T21:01:19.684Z,66.38
2019-01-20T21:03:51.090Z,66.31
2019-01-20T21:06:22.467Z,66.56
2019-01-20T21:08:53.775Z,66.38
2019-01-20T21:11:25.111Z,66.34
2019-01-20T21:13:56.463Z,66.66
2019-01-20T21:16:27.823Z,66.75
2019-01-20T21:19:02.415Z,66.98
2019-01-20T21:21:33.717Z,67.07
2019-01-20T21:24:05.169Z,67.25
2019-01-20T21:26:36.475Z,67.22
2019-01-20T21:29:07.802Z,67.10
2019-01-20T21:31:39.033Z,67.07
2019-01-20T21:34:10.350Z,67.01
2019-01-20T21:36:41.589Z,67.16
2019-01-20T21:39:12.912Z,67.61
2019-01-20T21:41:44.213Z,67.98
2019-01-20T21:44:15.513Z,68.05
2019-01-20T21:46:46.814Z,68.12
2019-01-20T21:49:18.099Z,68.14
2019-01-20T21:51:49.395Z,68.17
2019-01-20T21:54:20.729Z,68.01
2019-01-20T21:56:55.054Z,68.02
2019-01-20T21:59:26.345Z,68.08
2019-01-20T22:01:57.674Z,68.08
2019-01-20T22:04:28.969Z,68.12
2019-01-20T22:07:00.257Z,67.75
2019-01-20T22:09:31.578Z,67.54
2019-01-20T22:12:02.939Z,67.53
2019-01-20T22:14:34.278Z,67.70
2019-01-20T22:17:08.685Z,68.19
2019-01-20T22:19:39.982Z,68.13
2019-01-20T22:22:11.299Z,68.32
2019-01-20T22:24:42.618Z,68.62
2019-01-20T22:27:13.882Z,68.79
2019-01-20T22:29:45.181Z,68.79
2019-01-20T22:32:16.466Z,69.22
2019-01-20T22:34:47.767Z,69.56
2019-01-20T22:37:19.072Z,69.93
2019-01-20T22:39:50.349Z,70.04
2019-01-20T22:42:21.675Z,70.32
2019-01-20T22:44:53.037Z,70.52
2019-01-20T22:47:24.338Z,70.98
2019-01-20T22:49:55.678Z,71.33
2019-01-20T22:52:27.018Z,71.40
2019-01-20T22:54:58.340Z,71.46
2019-01-20T22:57:29.617Z,71.69
2019-01-20T23:00:00.932Z,71.77
2019-01-20T23:02:32.289Z,71.89
2019-01-20T23:05:03.585Z,71.92
2019-01-20T23:07:34.933Z,71.96
2019-01-20T23:10:07.260Z,72.03
2019-01-20T23:12:38.569Z,72.13
2019-01-20T23:15:10.587Z,72.18
2019-01-20T23:17:41.905Z,72.26
2019-01-20T23:20:15.375Z,72.12
2019-01-20T23:22:46.676Z,72.25
2019-01-20T23:25:18.031Z,72.58
2019-01-20T23:27:49.431Z,72.57
2019-01-20T23:30:20.766Z,72.27
2019-01-20T23:32:55.215Z,72.96
2019-01-20T23:35:26.511Z,73.46
2019-01-20T23:37:57.806Z,73.98
2019-01-20T23:40:29.159Z,74.47
2019-01-20T23:43:00.528Z,74.59
2019-01-20T23:45:31.853Z,74.56
2019-01-20T23:48:03.162Z,74.51
2019-01-20T23:50:34.595Z,74.67
2019-01-20T23:53:06.109Z,74.71
2019-01-20T23:55:37.739Z,74.63
2019-01-20T23:58:09.140Z,74.71
